sensor_id;sensor_type;location;lat;lon;timestamp;temperature;humidity
11505;DHT22;5809;53.262;10.408;2023-03-12T00:00:20;1.10;99.90
11505;DHT22;5809;53.262;10.408;2023-03-12T00:02:47;1.00;99.90
11505;DHT22;5809;53.262;10.408;2023-03-12T00:05:14;0.90;99.90
11505;DHT22;5809;53.262;10.408;2023-03-12T00:07:41;0.90;99.90
11505;DHT22;5809;53.262;10.408;2023-03-12T00:10:09;0.90;99.90
11505;DHT22;5809;53.262;10.408;2023-03-12T00:15:05;0.80;99.90
11505;DHT22;5809;53.262;10.408;2023-03-12T00:17:33;0.80;99.90
11505;DHT22;5809;53.262;10.408;2023-03-12T00:20:00;0.80;99.90
11505;DHT22;5809;53.262;10.408;2023-03-12T00:22:28;0.80;99.90
11505;DHT22;5809;53.262;10.408;2023-03-12T00:24:55;0.70;99.90
11505;DHT22;5809;53.262;10.408;2023-03-12T00:27:24;0.70;99.90
11505;DHT22;5809;53.262;10.408;2023-03-12T00:29:51;0.60;99.90
11505;DHT22;5809;53.262;10.408;2023-03-12T00:32:18;0.60;99.90
11505;DHT22;5809;53.262;10.408;2023-03-12T00:34:51;0.60;99.90
11505;DHT22;5809;53.262;10.408;2023-03-12T00:44:40;0.40;99.90
11505;DHT22;5809;53.262;10.408;2023-03-12T00:47:08;0.40;99.90
11505;DHT22;5809;53.262;10.408;2023-03-12T00:49:35;0.40;99.90
11505;DHT22;5809;53.262;10.408;2023-03-12T00:52:04;0.30;99.90
11505;DHT22;5809;53.262;10.408;2023-03-12T00:54:31;0.20;99.90
11505;DHT22;5809;53.262;10.408;2023-03-12T01:01:53;0.10;99.90
11505;DHT22;5809;53.262;10.408;2023-03-12T01:09:15;0.00;99.90
11505;DHT22;5809;53.262;10.408;2023-03-12T01:11:42;0.00;99.90
11505;DHT22;5809;53.262;10.408;2023-03-12T01:14:09;-0.10;99.90
11505;DHT22;5809;53.262;10.408;2023-03-12T01:16:37;-0.10;99.90
11505;DHT22;5809;53.262;10.408;2023-03-12T01:21:31;-0.10;99.90
11505;DHT22;5809;53.262;10.408;2023-03-12T01:23:58;-0.20;99.90
11505;DHT22;5809;53.262;10.408;2023-03-12T01:26:26;-0.30;99.90
11505;DHT22;5809;53.262;10.408;2023-03-12T01:28:53;-0.20;99.90
11505;DHT22;5809;53.262;10.408;2023-03-12T01:31:20;-0.20;99.90
11505;DHT22;5809;53.262;10.408;2023-03-12T01:36:17;-0.20;99.90
11505;DHT22;5809;53.262;10.408;2023-03-12T01:41:12;-0.20;99.90
11505;DHT22;5809;53.262;10.408;2023-03-12T01:43:41;-0.30;99.90
11505;DHT22;5809;53.262;10.408;2023-03-12T01:46:24;-0.40;99.90
11505;DHT22;5809;53.262;10.408;2023-03-12T01:48:55;-0.30;99.90
11505;DHT22;5809;53.262;10.408;2023-03-12T01:51:24;-0.30;99.90
11505;DHT22;5809;53.262;10.408;2023-03-12T01:53:56;-0.30;99.90
11505;DHT22;5809;53.262;10.408;2023-03-12T01:56:26;-0.30;99.90
11505;DHT22;5809;53.262;10.408;2023-03-12T01:58:57;-0.30;99.90
11505;DHT22;5809;53.262;10.408;2023-03-12T02:01:26;-0.30;99.90
11505;DHT22;5809;53.262;10.408;2023-03-12T02:03:55;-0.30;99.90
11505;DHT22;5809;53.262;10.408;2023-03-12T02:06:28;-0.20;99.90
11505;DHT22;5809;53.262;10.408;2023-03-12T02:08:57;-0.20;99.90
11505;DHT22;5809;53.262;10.408;2023-03-12T02:11:26;-0.20;99.90
11505;DHT22;5809;53.262;10.408;2023-03-12T02:13:54;-0.10;99.90
11505;DHT22;5809;53.262;10.408;2023-03-12T02:18:49;-0.10;99.90
11505;DHT22;5809;53.262;10.408;2023-03-12T02:21:20;-0.20;99.90
11505;DHT22;5809;53.262;10.408;2023-03-12T02:23:55;-0.30;99.90
11505;DHT22;5809;53.262;10.408;2023-03-12T02:26:25;-0.40;99.90
11505;DHT22;5809;53.262;10.408;2023-03-12T02:28:53;-0.40;99.90
11505;DHT22;5809;53.262;10.408;2023-03-12T02:31:25;-0.60;99.90
11505;DHT22;5809;53.262;10.408;2023-03-12T02:33:54;-0.70;99.90
11505;DHT22;5809;53.262;10.408;2023-03-12T02:38:51;-0.90;99.90
11505;DHT22;5809;53.262;10.408;2023-03-12T02:41:20;-1.00;99.90
11505;DHT22;5809;53.262;10.408;2023-03-12T02:43:54;-1.10;99.90
11505;DHT22;5809;53.262;10.408;2023-03-12T02:46:22;-1.10;99.90
11505;DHT22;5809;53.262;10.408;2023-03-12T02:53:44;-1.20;99.90
11505;DHT22;5809;53.262;10.408;2023-03-12T02:56:11;-1.20;99.90
11505;DHT22;5809;53.262;10.408;2023-03-12T02:58:38;-1.20;99.90
11505;DHT22;5809;53.262;10.408;2023-03-12T03:01:08;-1.30;99.90
11505;DHT22;5809;53.262;10.408;2023-03-12T03:03:35;-1.30;99.90
11505;DHT22;5809;53.262;10.408;2023-03-12T03:06:03;-1.30;99.90
11505;DHT22;5809;53.262;10.408;2023-03-12T03:08:30;-1.40;99.90
11505;DHT22;5809;53.262;10.408;2023-03-12T03:10:57;-1.40;99.90
11505;DHT22;5809;53.262;10.408;2023-03-12T03:13:25;-1.30;99.90
11505;DHT22;5809;53.262;10.408;2023-03-12T03:15:52;-1.20;99.90
11505;DHT22;5809;53.262;10.408;2023-03-12T03:18:20;-1.20;99.90
11505;DHT22;5809;53.262;10.408;2023-03-12T03:20:54;-1.20;99.90
11505;DHT22;5809;53.262;10.408;2023-03-12T03:23:22;-1.30;99.90
11505;DHT22;5809;53.262;10.408;2023-03-12T03:28:17;-1.40;99.90
11505;DHT22;5809;53.262;10.408;2023-03-12T03:30:44;-1.40;99.90
11505;DHT22;5809;53.262;10.408;2023-03-12T03:33:12;-1.50;99.90
11505;DHT22;5809;53.262;10.408;2023-03-12T03:35:40;-1.60;99.90
11505;DHT22;5809;53.262;10.408;2023-03-12T03:40:34;-1.70;99.90
11505;DHT22;5809;53.262;10.408;2023-03-12T03:43:01;-1.70;99.90
11505;DHT22;5809;53.262;10.408;2023-03-12T03:45:28;-1.60;99.90
11505;DHT22;5809;53.262;10.408;2023-03-12T03:52:51;-1.70;99.90
11505;DHT22;5809;53.262;10.408;2023-03-12T04:00:13;-1.80;99.90
11505;DHT22;5809;53.262;10.408;2023-03-12T04:02:43;-1.80;99.90
11505;DHT22;5809;53.262;10.408;2023-03-12T04:05:10;-1.80;99.90
11505;DHT22;5809;53.262;10.408;2023-03-12T04:07:37;-1.90;99.90
11505;DHT22;5809;53.262;10.408;2023-03-12T04:10:07;-2.00;99.90
11505;DHT22;5809;53.262;10.408;2023-03-12T04:12:34;-2.00;99.90
11505;DHT22;5809;53.262;10.408;2023-03-12T04:17:28;-2.00;99.90
11505;DHT22;5809;53.262;10.408;2023-03-12T04:22:22;-1.90;99.90
11505;DHT22;5809;53.262;10.408;2023-03-12T04:27:18;-1.90;99.90
11505;DHT22;5809;53.262;10.408;2023-03-12T04:39:41;-1.70;99.90
11505;DHT22;5809;53.262;10.408;2023-03-12T04:42:08;0.30;99.90
11505;DHT22;5809;53.262;10.408;2023-03-12T04:49:32;-1.60;99.90
11505;DHT22;5809;53.262;10.408;2023-03-12T04:54:26;-1.50;99.90
11505;DHT22;5809;53.262;10.408;2023-03-12T04:59:23;-1.50;99.90
11505;DHT22;5809;53.262;10.408;2023-03-12T05:09:13;-1.50;99.90
11505;DHT22;5809;53.262;10.408;2023-03-12T05:16:35;-1.50;99.90
11505;DHT22;5809;53.262;10.408;2023-03-12T05:19:04;-1.50;99.90
11505;DHT22;5809;53.262;10.408;2023-03-12T05:21:31;-1.50;99.90
11505;DHT22;5809;53.262;10.408;2023-03-12T05:28:56;-1.30;99.90
11505;DHT22;5809;53.262;10.408;2023-03-12T05:41:18;-1.20;99.90
11505;DHT22;5809;53.262;10.408;2023-03-12T05:48:40;-1.20;99.90
11505;DHT22;5809;53.262;10.408;2023-03-12T05:53:35;-1.30;99.90
11505;DHT22;5809;53.262;10.408;2023-03-12T06:00:58;-1.20;99.90
11505;DHT22;5809;53.262;10.408;2023-03-12T06:05:52;-1.20;99.90
11505;DHT22;5809;53.262;10.408;2023-03-12T06:08:20;-1.20;99.90
11505;DHT22;5809;53.262;10.408;2023-03-12T06:13:19;-1.10;99.90
11505;DHT22;5809;53.262;10.408;2023-03-12T06:15:47;-1.10;99.90
11505;DHT22;5809;53.262;10.408;2023-03-12T06:20:41;-1.00;99.90
11505;DHT22;5809;53.262;10.408;2023-03-12T06:30:31;-0.70;99.90
11505;DHT22;5809;53.262;10.408;2023-03-12T06:35:25;-0.70;99.90
11505;DHT22;5809;53.262;10.408;2023-03-12T06:40:19;-0.60;99.90
11505;DHT22;5809;53.262;10.408;2023-03-12T06:45:16;-0.50;99.90
11505;DHT22;5809;53.262;10.408;2023-03-12T06:57:33;-0.40;99.90
11505;DHT22;5809;53.262;10.408;2023-03-12T07:09:51;-0.20;99.90
11505;DHT22;5809;53.262;10.408;2023-03-12T07:14:45;-0.10;99.90
11505;DHT22;5809;53.262;10.408;2023-03-12T07:19:40;0.10;99.90
11505;DHT22;5809;53.262;10.408;2023-03-12T07:24:34;0.20;99.90
11505;DHT22;5809;53.262;10.408;2023-03-12T07:31:56;0.60;99.90
11505;DHT22;5809;53.262;10.408;2023-03-12T07:34:23;1.00;99.90
11505;DHT22;5809;53.262;10.408;2023-03-12T07:46:41;1.10;99.90
11505;DHT22;5809;53.262;10.408;2023-03-12T07:51:35;1.30;99.90
11505;DHT22;5809;53.262;10.408;2023-03-12T07:54:03;1.50;99.90
11505;DHT22;5809;53.262;10.408;2023-03-12T07:58:57;2.10;99.90
11505;DHT22;5809;53.262;10.408;2023-03-12T08:03:56;2.80;99.90
11505;DHT22;5809;53.262;10.408;2023-03-12T08:16:14;2.80;99.90
11505;DHT22;5809;53.262;10.408;2023-03-12T08:18:41;2.80;99.90
11505;DHT22;5809;53.262;10.408;2023-03-12T08:33:27;3.40;99.90
11505;DHT22;5809;53.262;10.408;2023-03-12T08:38:21;3.80;99.90
11505;DHT22;5809;53.262;10.408;2023-03-12T08:45:53;3.50;99.90
11505;DHT22;5809;53.262;10.408;2023-03-12T08:50:47;3.10;99.90
11505;DHT22;5809;53.262;10.408;2023-03-12T09:00:37;3.40;99.90
11505;DHT22;5809;53.262;10.408;2023-03-12T09:03:05;3.60;99.90
11505;DHT22;5809;53.262;10.408;2023-03-12T09:08:00;3.60;99.90
11505;DHT22;5809;53.262;10.408;2023-03-12T09:10:27;3.50;99.90
11505;DHT22;5809;53.262;10.408;2023-03-12T09:12:54;3.70;99.90
11505;DHT22;5809;53.262;10.408;2023-03-12T09:17:48;3.70;99.90
11505;DHT22;5809;53.262;10.408;2023-03-12T09:27:40;4.10;99.90
11505;DHT22;5809;53.262;10.408;2023-03-12T09:32:36;4.20;99.90
11505;DHT22;5809;53.262;10.408;2023-03-12T09:35:04;4.00;99.90
11505;DHT22;5809;53.262;10.408;2023-03-12T09:37:32;3.80;99.90
11505;DHT22;5809;53.262;10.408;2023-03-12T09:47:29;3.60;99.90
11505;DHT22;5809;53.262;10.408;2023-03-12T09:59:57;3.50;99.90
11505;DHT22;5809;53.262;10.408;2023-03-12T10:10:26;3.20;99.90
11505;DHT22;5809;53.262;10.408;2023-03-12T10:15:43;3.80;99.90
11505;DHT22;5809;53.262;10.408;2023-03-12T10:20:52;4.50;99.90
11505;DHT22;5809;53.262;10.408;2023-03-12T10:23:26;4.60;99.90
11505;DHT22;5809;53.262;10.408;2023-03-12T10:26:02;4.50;99.90
11505;DHT22;5809;53.262;10.408;2023-03-12T10:28:35;4.60;99.90
11505;DHT22;5809;53.262;10.408;2023-03-12T10:31:05;4.30;99.90
11505;DHT22;5809;53.262;10.408;2023-03-12T10:33:40;4.80;99.90
11505;DHT22;5809;53.262;10.408;2023-03-12T10:43:44;4.40;99.90
11505;DHT22;5809;53.262;10.408;2023-03-12T10:56:50;4.20;99.90
11505;DHT22;5809;53.262;10.408;2023-03-12T10:59:21;4.30;99.90
11505;DHT22;5809;53.262;10.408;2023-03-12T11:11:57;4.00;99.90
11505;DHT22;5809;53.262;10.408;2023-03-12T11:14:25;3.90;99.90
11505;DHT22;5809;53.262;10.408;2023-03-12T11:21:57;4.00;99.90
11505;DHT22;5809;53.262;10.408;2023-03-12T11:34:30;4.30;99.90
11505;DHT22;5809;53.262;10.408;2023-03-12T11:42:10;4.10;99.90
11505;DHT22;5809;53.262;10.408;2023-03-12T11:44:52;4.30;99.90
11505;DHT22;5809;53.262;10.408;2023-03-12T11:50:06;4.40;99.90
11505;DHT22;5809;53.262;10.408;2023-03-12T11:57:47;4.60;99.90
11505;DHT22;5809;53.262;10.408;2023-03-12T12:05:59;4.70;99.90
11505;DHT22;5809;53.262;10.408;2023-03-12T12:08:38;4.80;99.90
11505;DHT22;5809;53.262;10.408;2023-03-12T12:11:13;4.70;99.90
11505;DHT22;5809;53.262;10.408;2023-03-12T12:16:35;4.80;99.90
11505;DHT22;5809;53.262;10.408;2023-03-12T12:31:56;4.70;99.90
11505;DHT22;5809;53.262;10.408;2023-03-12T12:34:45;4.50;99.90
11505;DHT22;5809;53.262;10.408;2023-03-12T12:42:54;4.20;99.90
11505;DHT22;5809;53.262;10.408;2023-03-12T12:45:23;4.40;99.90
11505;DHT22;5809;53.262;10.408;2023-03-12T12:55:27;4.60;99.90
11505;DHT22;5809;53.262;10.408;2023-03-12T13:10:55;4.60;99.90
11505;DHT22;5809;53.262;10.408;2023-03-12T13:15:50;4.30;99.90
11505;DHT22;5809;53.262;10.408;2023-03-12T13:21:11;4.40;99.90
11505;DHT22;5809;53.262;10.408;2023-03-12T13:23:46;4.30;99.90
11505;DHT22;5809;53.262;10.408;2023-03-12T13:29:00;3.50;99.90
11505;DHT22;5809;53.262;10.408;2023-03-12T13:39:29;2.90;99.90
11505;DHT22;5809;53.262;10.408;2023-03-12T13:44:37;2.90;99.90
11505;DHT22;5809;53.262;10.408;2023-03-12T13:49:47;2.90;99.90
11505;DHT22;5809;53.262;10.408;2023-03-12T14:07:50;2.70;99.90
11505;DHT22;5809;53.262;10.408;2023-03-12T14:15:32;2.30;99.90
11505;DHT22;5809;53.262;10.408;2023-03-12T14:33:03;2.20;99.90
11505;DHT22;5809;53.262;10.408;2023-03-12T14:35:35;2.20;99.90
11505;DHT22;5809;53.262;10.408;2023-03-12T14:38:06;2.20;99.90
11505;DHT22;5809;53.262;10.408;2023-03-12T14:50:47;2.10;99.90
11505;DHT22;5809;53.262;10.408;2023-03-12T14:53:20;2.10;99.90
11505;DHT22;5809;53.262;10.408;2023-03-12T14:55:58;2.20;99.90
11505;DHT22;5809;53.262;10.408;2023-03-12T14:58:25;2.20;99.90
11505;DHT22;5809;53.262;10.408;2023-03-12T15:00:57;2.10;99.90
11505;DHT22;5809;53.262;10.408;2023-03-12T15:03:25;2.10;99.90
11505;DHT22;5809;53.262;10.408;2023-03-12T15:05:53;2.10;99.90
11505;DHT22;5809;53.262;10.408;2023-03-12T15:10:50;2.00;99.90
11505;DHT22;5809;53.262;10.408;2023-03-12T15:18:16;1.80;99.90
11505;DHT22;5809;53.262;10.408;2023-03-12T15:23:12;1.80;99.90
11505;DHT22;5809;53.262;10.408;2023-03-12T15:25:41;1.80;99.90
11505;DHT22;5809;53.262;10.408;2023-03-12T15:28:24;1.70;99.90
11505;DHT22;5809;53.262;10.408;2023-03-12T15:38:32;1.60;99.90
11505;DHT22;5809;53.262;10.408;2023-03-12T15:41:07;1.50;99.90
11505;DHT22;5809;53.262;10.408;2023-03-12T15:43:34;1.50;99.90
11505;DHT22;5809;53.262;10.408;2023-03-12T15:48:32;1.50;99.90
11505;DHT22;5809;53.262;10.408;2023-03-12T15:51:00;1.50;99.90
11505;DHT22;5809;53.262;10.408;2023-03-12T15:58:35;1.60;99.90
11505;DHT22;5809;53.262;10.408;2023-03-12T16:08:33;1.50;99.90
11505;DHT22;5809;53.262;10.408;2023-03-12T16:11:01;1.60;99.90
11505;DHT22;5809;53.262;10.408;2023-03-12T16:13:30;1.60;99.90
11505;DHT22;5809;53.262;10.408;2023-03-12T16:25:50;1.60;99.90
11505;DHT22;5809;53.262;10.408;2023-03-12T16:40:38;1.80;99.90
11505;DHT22;5809;53.262;10.408;2023-03-12T16:43:12;1.70;99.90
11505;DHT22;5809;53.262;10.408;2023-03-12T16:55:43;1.80;99.90
11505;DHT22;5809;53.262;10.408;2023-03-12T16:58:12;1.80;99.90
11505;DHT22;5809;53.262;10.408;2023-03-12T17:00:41;1.80;99.90
11505;DHT22;5809;53.262;10.408;2023-03-12T17:03:17;1.80;99.90
11505;DHT22;5809;53.262;10.408;2023-03-12T17:05:44;1.80;99.90
11505;DHT22;5809;53.262;10.408;2023-03-12T17:10:38;1.80;99.90
11505;DHT22;5809;53.262;10.408;2023-03-12T17:13:05;1.90;99.90
11505;DHT22;5809;53.262;10.408;2023-03-12T17:20:30;1.90;99.90
11505;DHT22;5809;53.262;10.408;2023-03-12T17:23:01;1.90;99.90
11505;DHT22;5809;53.262;10.408;2023-03-12T17:25:30;2.00;99.90
11505;DHT22;5809;53.262;10.408;2023-03-12T17:27:57;2.00;99.90
11505;DHT22;5809;53.262;10.408;2023-03-12T17:32:51;2.10;99.90
11505;DHT22;5809;53.262;10.408;2023-03-12T17:45:10;2.20;99.90
11505;DHT22;5809;53.262;10.408;2023-03-12T17:57:28;2.30;99.90
11505;DHT22;5809;53.262;10.408;2023-03-12T18:02:22;2.40;99.90
11505;DHT22;5809;53.262;10.408;2023-03-12T18:07:16;2.50;99.90
11505;DHT22;5809;53.262;10.408;2023-03-12T18:26:55;2.80;99.90
11505;DHT22;5809;53.262;10.408;2023-03-12T18:31:52;3.00;99.90
11505;DHT22;5809;53.262;10.408;2023-03-12T18:34:19;3.00;99.90
11505;DHT22;5809;53.262;10.408;2023-03-12T18:39:15;3.20;99.90
11505;DHT22;5809;53.262;10.408;2023-03-12T18:44:09;3.40;99.90
11505;DHT22;5809;53.262;10.408;2023-03-12T18:51:33;3.80;99.90
11505;DHT22;5809;53.262;10.408;2023-03-12T18:56:28;4.00;99.90
11505;DHT22;5809;53.262;10.408;2023-03-12T19:03:51;4.30;99.90
11505;DHT22;5809;53.262;10.408;2023-03-12T19:11:14;4.40;99.90
11505;DHT22;5809;53.262;10.408;2023-03-12T19:13:42;4.40;99.90
11505;DHT22;5809;53.262;10.408;2023-03-12T19:16:10;4.50;99.90
11505;DHT22;5809;53.262;10.408;2023-03-12T19:18:40;4.50;99.90
11505;DHT22;5809;53.262;10.408;2023-03-12T19:21:08;4.50;99.90
11505;DHT22;5809;53.262;10.408;2023-03-12T19:31:00;4.70;99.90
11505;DHT22;5809;53.262;10.408;2023-03-12T19:35:55;4.80;99.90
11505;DHT22;5809;53.262;10.408;2023-03-12T19:40:51;4.90;99.90
11505;DHT22;5809;53.262;10.408;2023-03-12T19:43:19;4.90;99.90
11505;DHT22;5809;53.262;10.408;2023-03-12T19:45:46;4.90;99.90
11505;DHT22;5809;53.262;10.408;2023-03-12T19:50:41;5.00;99.90
11505;DHT22;5809;53.262;10.408;2023-03-12T19:58:05;5.00;99.90
11505;DHT22;5809;53.262;10.408;2023-03-12T20:00:33;5.10;99.90
11505;DHT22;5809;53.262;10.408;2023-03-12T20:05:27;5.20;99.90
11505;DHT22;5809;53.262;10.408;2023-03-12T20:07:54;5.20;99.90
11505;DHT22;5809;53.262;10.408;2023-03-12T20:12:49;5.20;99.90
11505;DHT22;5809;53.262;10.408;2023-03-12T20:15:16;5.20;99.90
11505;DHT22;5809;53.262;10.408;2023-03-12T20:25:06;5.30;99.90
11505;DHT22;5809;53.262;10.408;2023-03-12T20:32:30;5.40;99.90
11505;DHT22;5809;53.262;10.408;2023-03-12T20:44:46;5.40;99.90
11505;DHT22;5809;53.262;10.408;2023-03-12T20:52:09;5.50;99.90
11505;DHT22;5809;53.262;10.408;2023-03-12T21:04:26;5.50;99.90
11505;DHT22;5809;53.262;10.408;2023-03-12T21:06:53;5.50;99.90
11505;DHT22;5809;53.262;10.408;2023-03-12T21:09:20;5.60;99.90
11505;DHT22;5809;53.262;10.408;2023-03-12T21:14:15;5.60;99.90
11505;DHT22;5809;53.262;10.408;2023-03-12T21:21:37;5.70;99.90
11505;DHT22;5809;53.262;10.408;2023-03-12T21:26:32;5.70;99.90
11505;DHT22;5809;53.262;10.408;2023-03-12T21:33:54;5.70;99.90
11505;DHT22;5809;53.262;10.408;2023-03-12T21:38:49;5.70;99.90
11505;DHT22;5809;53.262;10.408;2023-03-12T21:41:18;5.80;99.90
11505;DHT22;5809;53.262;10.408;2023-03-12T21:48:42;5.80;99.90
11505;DHT22;5809;53.262;10.408;2023-03-12T21:51:11;5.80;99.90
11505;DHT22;5809;53.262;10.408;2023-03-12T21:53:38;5.80;99.90
11505;DHT22;5809;53.262;10.408;2023-03-12T21:56:07;5.80;99.90
11505;DHT22;5809;53.262;10.408;2023-03-12T21:58:35;5.90;99.90
11505;DHT22;5809;53.262;10.408;2023-03-12T22:03:30;5.80;99.90
11505;DHT22;5809;53.262;10.408;2023-03-12T22:05:57;5.80;99.90
11505;DHT22;5809;53.262;10.408;2023-03-12T22:08:24;5.80;99.90
11505;DHT22;5809;53.262;10.408;2023-03-12T22:18:19;5.70;99.90
11505;DHT22;5809;53.262;10.408;2023-03-12T22:20:49;5.80;99.90
11505;DHT22;5809;53.262;10.408;2023-03-12T22:25:43;5.70;99.90
11505;DHT22;5809;53.262;10.408;2023-03-12T22:30:39;5.80;99.90
11505;DHT22;5809;53.262;10.408;2023-03-12T22:35:33;5.70;99.90
11505;DHT22;5809;53.262;10.408;2023-03-12T22:45:28;5.90;99.90
11505;DHT22;5809;53.262;10.408;2023-03-12T22:47:56;5.90;99.90
11505;DHT22;5809;53.262;10.408;2023-03-12T22:52:50;5.90;99.90
11505;DHT22;5809;53.262;10.408;2023-03-12T22:57:44;5.80;99.90
11505;DHT22;5809;53.262;10.408;2023-03-12T23:02:39;5.80;99.90
11505;DHT22;5809;53.262;10.408;2023-03-12T23:07:36;5.90;99.90
11505;DHT22;5809;53.262;10.408;2023-03-12T23:34:37;6.00;99.90
11505;DHT22;5809;53.262;10.408;2023-03-12T23:44:27;6.00;99.90
11505;DHT22;5809;53.262;10.408;2023-03-12T23:49:21;6.00;99.90
11505;DHT22;5809;53.262;10.408;2023-03-12T23:59:11;6.10;99.90
